Time;durP1;ratioP1;P1;durP2;ratioP2;P2;SDS_P1;SDS_P2;PMS_P1;PMS_P2;Temp;Humidity;BMP_temperature;BMP_pressure;BME280_temperature;BME280_humidity;BME280_pressure;Samples;Min_cycle;Max_cycle;Signal;HPM_P1;HPM_P2
2022/05/16 00:00:10;;;;;;;;;;;26.70;38.80;;;;;;667572;29;1306;-84
2022/05/16 00:00:31;;;;;;;;;;;26.70;38.80;;;;;;667855;29;1208;-91
2022/05/16 00:00:52;;;;;;;;;;;26.70;38.80;;;;;;667796;29;821;-87
2022/05/16 00:01:12;;;;;;;;;;;26.70;38.90;;;;;;667819;29;876;-88
2022/05/16 00:01:33;;;;;;;;;;;26.70;39.20;;;;;;668260;29;856;-84
2022/05/16 00:01:55;;;;;;;;;;;26.70;39.00;;;;;;670008;29;896;-91
2022/05/16 00:02:16;;;;;;;;;;;26.70;39.40;;;;;;667210;29;1095;-87
2022/05/16 00:02:36;;;;;;;;;;;26.70;39.10;;;;;;667800;29;828;-87
2022/05/16 00:03:02;;;;;;;;;;;26.70;39.60;;;;;;667535;29;1268;-84
2022/05/16 00:03:24;;;;;;;;;;;26.70;38.90;;;;;;667673;29;804;-85
2022/05/16 00:03:44;;;;;;;;;;;26.70;38.90;;;;;;667885;29;832;-84
2022/05/16 00:04:05;;;;;;;;;;;26.70;39.00;;;;;;667734;29;880;-83
2022/05/16 00:04:26;;;;;;;;;;;26.70;39.00;;;;;;667739;29;828;-88
2022/05/16 00:04:49;;;;;;;;;;;26.70;39.00;;;;;;669344;29;908;-90
2022/05/16 00:05:10;;;;;;;;;;;26.70;38.90;;;;;;670610;29;559;-83
2022/05/16 00:05:31;;;;;;;;;;;26.70;39.10;;;;;;670562;29;804;-84
2022/05/16 00:05:51;;;;;;;;;;;26.70;39.20;;;;;;670495;29;832;-86
2022/05/16 00:06:12;;;;;;;;;;;26.70;39.10;;;;;;670578;29;864;-83
2022/05/16 00:06:32;;;;;;;;;;;26.70;39.10;;;;;;670464;29;840;-83
2022/05/16 00:06:53;;;;;;;;;;;26.70;39.10;;;;;;670462;29;856;-86
2022/05/16 00:07:14;;;;;;;;;;;26.70;39.20;;;;;;671027;29;793;-82
2022/05/16 00:07:35;;;;;;;;;;;26.70;39.10;;;;;;670396;29;888;-83
2022/05/16 00:07:57;;;;;;;;;;;26.70;39.10;;;;;;670564;29;907;-87
2022/05/16 00:08:17;;;;;;;;;;;26.70;39.10;;;;;;670524;29;912;-86
2022/05/16 00:08:38;;;;;;;;;;;26.70;39.70;;;;;;670427;29;785;-88
2022/05/16 00:08:58;;;;;;;;;;;26.70;39.30;;;;;;670435;29;872;-84
2022/05/16 00:09:19;;;;;;;;;;;26.60;39.50;;;;;;667668;29;1220;-86
2022/05/16 00:09:39;;;;;;;;;;;26.70;39.50;;;;;;667727;29;821;-84
2022/05/16 00:10:00;;;;;;;;;;;26.70;39.40;;;;;;665099;29;1306;-85
2022/05/16 00:10:21;;;;;;;;;;;26.60;39.20;;;;;;665282;29;1908;-83
2022/05/16 00:10:42;;;;;;;;;;;26.60;39.10;;;;;;665219;29;1314;-85
2022/05/16 00:11:03;;;;;;;;;;;26.60;39.10;;;;;;665423;29;789;-87
2022/05/16 00:11:23;;;;;;;;;;;26.60;39.30;;;;;;667621;29;809;-86
2022/05/16 00:11:44;;;;;;;;;;;26.70;39.20;;;;;;667753;29;1326;-83
2022/05/16 00:12:06;;;;;;;;;;;26.70;39.30;;;;;;665012;29;1344;-85
2022/05/16 00:12:26;;;;;;;;;;;26.60;39.40;;;;;;662556;29;1220;-85
2022/05/16 00:12:47;;;;;;;;;;;26.60;39.30;;;;;;662934;29;844;-87
2022/05/16 00:13:07;;;;;;;;;;;26.70;39.30;;;;;;662858;29;848;-82
2022/05/16 00:13:30;;;;;;;;;;;26.70;39.30;;;;;;663141;29;797;-85
2022/05/16 00:13:51;;;;;;;;;;;26.50;39.10;;;;;;666119;29;869;-85
2022/05/16 00:14:11;;;;;;;;;;;26.60;39.30;;;;;;668348;29;876;-83
2022/05/16 00:14:32;;;;;;;;;;;26.70;39.30;;;;;;670464;29;820;-85
2022/05/16 00:14:53;;;;;;;;;;;26.60;39.20;;;;;;670503;29;805;-83
2022/05/16 00:15:14;;;;;;;;;;;26.60;39.20;;;;;;667673;29;1204;-82
2022/05/16 00:15:35;;;;;;;;;;;26.70;39.20;;;;;;667746;29;972;-82
2022/05/16 00:15:56;;;;;;;;;;;26.60;39.10;;;;;;667730;29;809;-90
2022/05/16 00:16:16;;;;;;;;;;;26.70;39.20;;;;;;667885;29;931;-87
2022/05/16 00:16:37;;;;;;;;;;;26.60;39.70;;;;;;667697;29;1206;-87
2022/05/16 00:16:58;;;;;;;;;;;26.60;39.00;;;;;;667676;29;1330;-87
2022/05/16 00:17:18;;;;;;;;;;;26.60;39.40;;;;;;667955;29;851;-84
2022/05/16 00:17:39;;;;;;;;;;;26.60;39.20;;;;;;667847;29;867;-81
2022/05/16 00:17:59;;;;;;;;;;;26.60;39.30;;;;;;667729;29;1266;-86
2022/05/16 00:18:20;;;;;;;;;;;26.60;39.30;;;;;;667823;29;1022;-83
2022/05/16 00:18:40;;;;;;;;;;;26.60;39.20;;;;;;667683;29;927;-83
2022/05/16 00:19:01;;;;;;;;;;;26.60;39.20;;;;;;667750;29;853;-82
2022/05/16 00:19:22;;;;;;;;;;;26.60;39.20;;;;;;667737;29;1071;-86
2022/05/16 00:19:44;;;;;;;;;;;26.60;39.20;;;;;;668134;29;873;-84
2022/05/16 00:20:05;;;;;;;;;;;26.60;39.30;;;;;;670509;29;813;-85
2022/05/16 00:20:26;;;;;;;;;;;26.60;39.40;;;;;;670645;29;813;-89
2022/05/16 00:20:47;;;;;;;;;;;26.60;39.30;;;;;;668150;29;1344;-87
2022/05/16 00:21:07;;;;;;;;;;;26.60;39.20;;;;;;665514;29;1229;-84
2022/05/16 00:21:28;;;;;;;;;;;26.60;39.20;;;;;;665229;29;864;-88
2022/05/16 00:21:49;;;;;;;;;;;26.60;39.10;;;;;;662802;29;1233;-88
2022/05/16 00:22:10;;;;;;;;;;;26.60;39.30;;;;;;662523;29;1404;-85
2022/05/16 00:22:31;;;;;;;;;;;26.60;39.10;;;;;;662860;29;1123;-87
2022/05/16 00:22:52;;;;;;;;;;;26.60;39.50;;;;;;665058;29;1402;-86
2022/05/16 00:23:13;;;;;;;;;;;26.50;39.40;;;;;;665264;29;1306;-84
2022/05/16 00:23:34;;;;;;;;;;;26.60;39.40;;;;;;665226;29;860;-82
2022/05/16 00:23:54;;;;;;;;;;;26.60;39.50;;;;;;665242;29;833;-84
2022/05/16 00:24:15;;;;;;;;;;;26.60;40.80;;;;;;665357;29;848;-86
2022/05/16 00:24:38;;;;;;;;;;;26.50;39.90;;;;;;665486;29;1291;-87
2022/05/16 00:24:59;;;;;;;;;;;26.60;39.30;;;;;;665798;29;1193;-86
2022/05/16 00:25:19;;;;;;;;;;;26.60;39.70;;;;;;665223;29;805;-84
2022/05/16 00:25:40;;;;;;;;;;;26.60;40.30;;;;;;665178;29;876;-83
2022/05/16 00:26:00;;;;;;;;;;;26.60;39.40;;;;;;665183;29;829;-85
2022/05/16 00:26:21;;;;;;;;;;;26.60;39.20;;;;;;665130;29;1199;-89
2022/05/16 00:26:42;;;;;;;;;;;26.60;39.10;;;;;;665467;29;1143;-87
2022/05/16 00:27:02;;;;;;;;;;;26.60;39.50;;;;;;664927;29;1290;-85
2022/05/16 00:27:23;;;;;;;;;;;26.60;39.90;;;;;;665160;29;781;-87
2022/05/16 00:27:44;;;;;;;;;;;24.40;38.20;;;;;;665450;29;821;-83
2022/05/16 00:28:05;;;;;;;;;;;26.50;39.20;;;;;;665286;29;773;-86
2022/05/16 00:28:25;;;;;;;;;;;26.60;39.50;;;;;;665479;29;1375;-85
2022/05/16 00:28:46;;;;;;;;;;;26.50;39.30;;;;;;667791;29;840;-84
2022/05/16 00:29:06;;;;;;;;;;;26.50;39.30;;;;;;665177;29;837;-85
2022/05/16 00:29:27;;;;;;;;;;;26.50;39.40;;;;;;665157;29;892;-86
2022/05/16 00:29:47;;;;;;;;;;;26.60;39.60;;;;;;665348;29;797;-87
2022/05/16 00:30:11;;;;;;;;;;;26.50;40.40;;;;;;665449;29;872;-86
2022/05/16 00:30:32;;;;;;;;;;;26.50;40.50;;;;;;667523;29;1985;-86
2022/05/16 00:30:53;;;;;;;;;;;26.50;39.60;;;;;;667649;29;1086;-85
2022/05/16 00:31:13;;;;;;;;;;;26.50;39.60;;;;;;667737;29;1102;-87
2022/05/16 00:31:34;;;;;;;;;;;26.50;39.80;;;;;;667614;29;1118;-85
2022/05/16 00:31:55;;;;;;;;;;;26.50;39.60;;;;;;667740;29;808;-86
2022/05/16 00:32:17;;;;;;;;;;;26.50;39.60;;;;;;667677;29;1343;-86
2022/05/16 00:32:37;;;;;;;;;;;26.50;39.50;;;;;;667517;29;1454;-86
2022/05/16 00:32:58;;;;;;;;;;;26.50;40.50;;;;;;667710;29;867;-87
2022/05/16 00:33:19;;;;;;;;;;;26.50;39.60;;;;;;665174;29;1225;-84
2022/05/16 00:33:41;;;;;;;;;;;26.50;39.30;;;;;;665126;29;837;-84
2022/05/16 00:34:01;;;;;;;;;;;26.50;39.30;;;;;;665144;29;825;-84
2022/05/16 00:34:22;;;;;;;;;;;26.50;39.10;;;;;;663319;29;1609;-84
2022/05/16 00:34:43;;;;;;;;;;;26.50;39.20;;;;;;665196;29;877;-85
2022/05/16 00:35:04;;;;;;;;;;;26.50;39.40;;;;;;665666;29;817;-85
2022/05/16 00:35:25;;;;;;;;;;;26.50;39.20;;;;;;667681;29;824;-83
2022/05/16 00:35:45;;;;;;;;;;;26.50;39.20;;;;;;667817;29;809;-83
2022/05/16 00:36:06;;;;;;;;;;;26.50;39.00;;;;;;668065;29;845;-84
2022/05/16 00:36:26;;;;;;;;;;;26.50;39.20;;;;;;670304;29;1074;-85
2022/05/16 00:36:47;;;;;;;;;;;26.50;39.20;;;;;;670681;29;812;-82
2022/05/16 00:37:07;;;;;;;;;;;26.50;39.30;;;;;;667578;29;1216;-84
2022/05/16 00:37:28;;;;;;;;;;;26.50;39.40;;;;;;667637;29;944;-87
2022/05/16 00:37:48;;;;;;;;;;;26.50;39.40;;;;;;667684;29;880;-82
2022/05/16 00:38:09;;;;;;;;;;;26.50;39.30;;;;;;667634;29;757;-83
2022/05/16 00:38:30;;;;;;;;;;;26.50;39.20;;;;;;667611;29;1371;-86
2022/05/16 00:38:53;;;;;;;;;;;26.50;39.10;;;;;;667686;29;1366;-85
2022/05/16 00:39:15;;;;;;;;;;;26.50;39.20;;;;;;667666;29;1138;-83
2022/05/16 00:39:36;;;;;;;;;;;26.50;39.20;;;;;;667477;29;1270;-82
2022/05/16 00:39:56;;;;;;;;;;;26.50;39.30;;;;;;665326;29;1229;-85
2022/05/16 00:40:18;;;;;;;;;;;26.50;39.30;;;;;;665179;29;1249;-86
2022/05/16 00:40:38;;;;;;;;;;;26.50;39.10;;;;;;665164;29;742;-85
2022/05/16 00:41:02;;;;;;;;;;;26.50;39.10;;;;;;665230;29;583;-84
2022/05/16 00:41:22;;;;;;;;;;;26.50;39.10;;;;;;663302;29;1391;-87
2022/05/16 00:41:44;;;;;;;;;;;26.50;39.20;;;;;;665740;29;1486;-84
2022/05/16 00:42:04;;;;;;;;;;;26.50;39.30;;;;;;665060;29;1333;-85
2022/05/16 00:42:25;;;;;;;;;;;26.50;39.50;;;;;;665280;29;817;-86
2022/05/16 00:42:49;;;;;;;;;;;26.50;39.10;;;;;;665336;29;1421;-87
2022/05/16 00:43:11;;;;;;;;;;;26.50;39.80;;;;;;666008;29;824;-89
2022/05/16 00:43:45;;;;;;;;;;;26.50;39.30;;;;;;667595;29;1202;-86
2022/05/16 00:44:06;;;;;;;;;;;26.50;39.30;;;;;;665043;29;1269;-85
2022/05/16 00:44:26;;;;;;;;;;;26.40;41.10;;;;;;665223;29;829;-82
2022/05/16 00:44:47;;;;;;;;;;;26.50;39.60;;;;;;665290;29;912;-88
2022/05/16 00:45:09;;;;;;;;;;;26.50;39.60;;;;;;665072;29;1489;-88
2022/05/16 00:45:30;;;;;;;;;;;26.50;39.40;;;;;;665155;29;1229;-87
2022/05/16 00:45:50;;;;;;;;;;;26.50;39.40;;;;;;665176;29;861;-85
2022/05/16 00:46:15;;;;;;;;;;;26.50;39.40;;;;;;665303;29;920;-88
2022/05/16 00:46:36;;;;;;;;;;;26.50;39.40;;;;;;665384;29;1282;-87
2022/05/16 00:46:57;;;;;;;;;;;26.50;39.50;;;;;;667901;29;1177;-93
2022/05/16 00:47:18;;;;;;;;;;;26.50;40.90;;;;;;667121;29;1262;-88
2022/05/16 00:47:38;;;;;;;;;;;26.50;40.20;;;;;;662850;29;1496;-88
2022/05/16 00:47:59;;;;;;;;;;;26.50;40.10;;;;;;662967;29;857;-86
2022/05/16 00:48:19;;;;;;;;;;;26.50;40.80;;;;;;665507;29;1272;-85
2022/05/16 00:48:40;;;;;;;;;;;26.50;40.90;;;;;;665429;29;892;-86
2022/05/16 00:49:02;;;;;;;;;;;26.50;41.20;;;;;;663119;29;1237;-87
2022/05/16 00:49:29;;;;;;;;;;;26.50;40.10;;;;;;662824;29;1326;-85
2022/05/16 00:49:50;;;;;;;;;;;26.50;40.50;;;;;;662936;29;1205;-86
2022/05/16 00:50:11;;;;;;;;;;;26.50;39.90;;;;;;662897;29;987;-86
2022/05/16 00:50:33;;;;;;;;;;;26.50;39.60;;;;;;662876;29;1903;-86
2022/05/16 00:50:54;;;;;;;;;;;26.50;39.50;;;;;;664508;29;1007;-86
2022/05/16 00:51:44;;;;;;;;;;;26.50;39.60;;;;;;666055;29;1099;-86
2022/05/16 00:52:09;;;;;;;;;;;26.50;39.30;;;;;;664952;29;1374;-85
2022/05/16 00:52:35;;;;;;;;;;;26.50;39.50;;;;;;664902;29;1069;-87
2022/05/16 00:52:55;;;;;;;;;;;26.50;39.60;;;;;;664965;29;1323;-87
2022/05/16 00:53:16;;;;;;;;;;;26.60;39.90;;;;;;667861;29;1158;-86
2022/05/16 00:53:36;;;;;;;;;;;26.60;40.10;;;;;;664957;29;1202;-87
2022/05/16 00:54:00;;;;;;;;;;;26.60;39.80;;;;;;664612;29;1188;-88
2022/05/16 00:54:23;;;;;;;;;;;26.60;39.70;;;;;;664143;29;1447;-86
2022/05/16 00:55:02;;;;;;;;;;;26.50;39.60;;;;;;660264;30;1182;-86
2022/05/16 00:55:25;;;;;;;;;;;26.60;39.40;;;;;;660640;30;1210;-88
2022/05/16 00:55:45;;;;;;;;;;;26.50;39.60;;;;;;662912;29;1071;-87
2022/05/16 00:56:07;;;;;;;;;;;26.50;40.40;;;;;;663122;29;864;-86
2022/05/16 00:56:28;;;;;;;;;;;26.60;40.20;;;;;;664786;29;1046;-88
2022/05/16 00:56:51;;;;;;;;;;;26.60;39.60;;;;;;667528;29;1234;-90
2022/05/16 00:57:13;;;;;;;;;;;26.60;39.40;;;;;;668352;29;1049;-86
2022/05/16 00:57:35;;;;;;;;;;;26.60;40.50;;;;;;667351;29;1222;-88
2022/05/16 00:58:03;;;;;;;;;;;26.50;40.00;;;;;;667256;29;1248;-87
2022/05/16 00:58:24;;;;;;;;;;;26.60;39.70;;;;;;667571;29;1288;-88
2022/05/16 00:58:46;;;;;;;;;;;26.60;39.50;;;;;;664882;29;1429;-85
2022/05/16 00:59:07;;;;;;;;;;;26.60;39.50;;;;;;664775;29;1072;-86
2022/05/16 00:59:32;;;;;;;;;;;26.60;40.40;;;;;;663073;29;1180;-86
2022/05/16 01:00:02;;;;;;;;;;;26.60;39.80;;;;;;662076;30;1241;-89
2022/05/16 01:00:26;;;;;;;;;;;26.60;39.10;;;;;;660379;30;1370;-86
2022/05/16 01:00:48;;;;;;;;;;;26.60;40.40;;;;;;660160;30;1219;-87
2022/05/16 01:04:47;;;;;;;;;;;26.60;39.30;;;;;;662571;29;1107;-86
2022/05/16 01:04:48;;;;;;;;;;;26.60;39.20;;;;;;667691;29;642;-88
2022/05/16 01:05:08;;;;;;;;;;;24.60;38.10;;;;;;665097;29;864;-88
2022/05/16 01:05:29;;;;;;;;;;;26.60;39.50;;;;;;662457;29;1278;-87
2022/05/16 01:05:50;;;;;;;;;;;26.60;39.10;;;;;;662760;29;885;-90
2022/05/16 01:06:10;;;;;;;;;;;26.60;39.80;;;;;;660040;30;1487;-88
2022/05/16 01:06:31;;;;;;;;;;;26.60;40.00;;;;;;660087;30;797;-89
2022/05/16 01:06:54;;;;;;;;;;;26.60;39.50;;;;;;660173;30;1202;-87
2022/05/16 01:07:25;;;;;;;;;;;26.60;39.00;;;;;;660518;29;1190;-87
2022/05/16 01:07:45;;;;;;;;;;;26.60;39.30;;;;;;662586;29;1273;-87
2022/05/16 01:08:08;;;;;;;;;;;26.60;40.10;;;;;;664365;29;813;-87
2022/05/16 01:08:30;;;;;;;;;;;26.60;39.80;;;;;;662330;29;1209;-90
2022/05/16 01:08:51;;;;;;;;;;;26.60;39.40;;;;;;660372;29;1505;-86
2022/05/16 01:09:12;;;;;;;;;;;26.60;39.90;;;;;;660177;30;992;-88
2022/05/16 01:09:32;;;;;;;;;;;26.60;41.80;;;;;;659846;30;1138;-87
2022/05/16 01:09:53;;;;;;;;;;;26.60;41.20;;;;;;659670;30;1214;-87
2022/05/16 01:10:15;;;;;;;;;;;26.60;40.60;;;;;;660595;29;1094;-87
2022/05/16 01:10:36;;;;;;;;;;;26.60;39.00;;;;;;659940;30;1896;-88
2022/05/16 01:11:00;;;;;;;;;;;26.40;38.90;;;;;;660059;30;1203;-88
2022/05/16 01:11:20;;;;;;;;;;;26.50;40.40;;;;;;659972;30;1140;-85
2022/05/16 01:11:41;;;;;;;;;;;25.30;39.60;;;;;;660181;30;814;-88
2022/05/16 01:12:02;;;;;;;;;;;26.60;39.80;;;;;;657544;30;1190;-87
2022/05/16 01:12:28;;;;;;;;;;;26.60;39.40;;;;;;658345;30;846;-87
2022/05/16 01:12:50;;;;;;;;;;;26.60;39.00;;;;;;658941;30;1330;-87
2022/05/16 01:13:11;;;;;;;;;;;26.60;39.00;;;;;;658568;30;1298;-88
2022/05/16 01:13:32;;;;;;;;;;;26.60;38.90;;;;;;660098;30;884;-90
2022/05/16 01:13:52;;;;;;;;;;;26.60;39.60;;;;;;658833;30;1440;-92
2022/05/16 01:14:35;;;;;;;;;;;26.60;39.50;;;;;;657627;30;1269;-89
2022/05/16 01:14:57;;;;;;;;;;;26.60;39.00;;;;;;659863;30;1135;-88
2022/05/16 01:15:31;;;;;;;;;;;26.60;38.80;;;;;;657693;30;1177;-89
2022/05/16 01:15:51;;;;;;;;;;;26.60;38.80;;;;;;659895;30;817;-87
2022/05/16 01:16:12;;;;;;;;;;;26.60;39.80;;;;;;662301;29;1361;-89
2022/05/16 01:16:32;;;;;;;;;;;26.60;39.20;;;;;;662390;29;1240;-87
2022/05/16 01:16:53;;;;;;;;;;;26.60;39.10;;;;;;662446;29;1187;-87
2022/05/16 01:17:14;;;;;;;;;;;26.60;38.90;;;;;;664631;29;872;-86
2022/05/16 01:17:34;;;;;;;;;;;26.60;39.00;;;;;;665075;29;813;-88
2022/05/16 01:17:55;;;;;;;;;;;26.60;39.80;;;;;;662745;29;1127;-89
2022/05/16 01:18:16;;;;;;;;;;;26.60;40.80;;;;;;665042;29;1365;-87
2022/05/16 01:18:37;;;;;;;;;;;26.60;39.00;;;;;;664646;29;891;-89
2022/05/16 01:18:58;;;;;;;;;;;26.60;39.10;;;;;;662493;29;1198;-86
2022/05/16 01:19:18;;;;;;;;;;;26.60;40.00;;;;;;662584;29;1348;-90
2022/05/16 01:19:39;;;;;;;;;;;26.60;39.60;;;;;;660138;30;1182;-89
2022/05/16 01:20:00;;;;;;;;;;;26.20;38.70;;;;;;660114;30;758;-90
2022/05/16 01:20:20;;;;;;;;;;;26.60;39.70;;;;;;660102;30;1139;-91
2022/05/16 01:21:06;;;;;;;;;;;26.60;39.00;;;;;;660192;29;1242;-89
2022/05/16 01:21:30;;;;;;;;;;;26.60;38.60;;;;;;665894;29;833;-93
2022/05/16 01:21:51;;;;;;;;;;;26.60;38.80;;;;;;666357;29;1214;-87
2022/05/16 01:22:16;;;;;;;;;;;26.60;39.30;;;;;;661228;29;1264;-88
2022/05/16 01:22:38;;;;;;;;;;;26.60;38.80;;;;;;659338;30;1258;-90
2022/05/16 01:22:58;;;;;;;;;;;26.60;38.50;;;;;;659906;30;1404;-88
2022/05/16 01:23:20;;;;;;;;;;;26.60;39.30;;;;;;660266;30;1375;-87
2022/05/16 01:23:43;;;;;;;;;;;26.60;39.00;;;;;;661297;29;801;-88
2022/05/16 01:24:09;;;;;;;;;;;26.60;39.00;;;;;;661363;29;1284;-91
2022/05/16 01:24:29;;;;;;;;;;;26.50;38.50;;;;;;660041;30;1508;-93
2022/05/16 01:24:54;;;;;;;;;;;25.10;38.00;;;;;;661319;29;1372;-91
2022/05/16 01:25:17;;;;;;;;;;;26.60;38.60;;;;;;660135;30;1321;-86
2022/05/16 01:25:38;;;;;;;;;;;26.60;38.60;;;;;;660083;30;739;-91
2022/05/16 01:26:00;;;;;;;;;;;26.50;39.30;;;;;;659968;30;1111;-90
2022/05/16 01:26:24;;;;;;;;;;;26.60;38.90;;;;;;658713;30;1244;-88
2022/05/16 01:26:45;;;;;;;;;;;26.60;38.60;;;;;;659296;30;1268;-88
2022/05/16 01:27:05;;;;;;;;;;;26.50;39.10;;;;;;661133;29;1296;-87
2022/05/16 01:27:26;;;;;;;;;;;26.50;39.40;;;;;;659682;30;1238;-93
2022/05/16 01:27:55;;;;;;;;;;;26.50;39.20;;;;;;660138;30;1195;-90
2022/05/16 01:28:17;;;;;;;;;;;26.50;38.60;;;;;;661895;29;1428;-90
2022/05/16 01:28:37;;;;;;;;;;;26.60;38.80;;;;;;660050;30;1199;-88
2022/05/16 01:28:58;;;;;;;;;;;26.60;38.70;;;;;;661541;29;1222;-93
2022/05/16 01:29:20;;;;;;;;;;;26.60;38.70;;;;;;662766;29;888;-93
2022/05/16 01:29:40;;;;;;;;;;;26.50;38.90;;;;;;659237;29;1118;-91
2022/05/16 01:30:01;;;;;;;;;;;26.60;39.20;;;;;;660602;29;1312;-89
2022/05/16 01:30:24;;;;;;;;;;;26.50;38.80;;;;;;662695;29;2006;-89
2022/05/16 01:30:46;;;;;;;;;;;26.50;39.90;;;;;;663272;29;1170;-88
2022/05/16 01:31:07;;;;;;;;;;;26.50;38.50;;;;;;665239;29;1241;-89
2022/05/16 01:31:28;;;;;;;;;;;26.60;38.60;;;;;;662691;29;1218;-88
2022/05/16 01:31:49;;;;;;;;;;;26.50;40.30;;;;;;661065;29;1265;-89
2022/05/16 01:32:10;;;;;;;;;;;26.50;39.20;;;;;;660014;30;1359;-91
2022/05/16 01:32:30;;;;;;;;;;;26.50;38.80;;;;;;660139;30;1463;-90
2022/05/16 01:32:51;;;;;;;;;;;26.50;39.60;;;;;;660507;29;1159;-93
2022/05/16 01:33:12;;;;;;;;;;;26.50;39.20;;;;;;663218;29;718;-95
2022/05/16 01:33:33;;;;;;;;;;;26.50;38.70;;;;;;662576;29;1300;-88
2022/05/16 01:33:54;;;;;;;;;;;26.50;38.70;;;;;;662659;29;1253;-92
2022/05/16 01:34:15;;;;;;;;;;;26.50;38.60;;;;;;662892;29;719;-87
2022/05/16 01:34:36;;;;;;;;;;;26.50;39.10;;;;;;660585;29;1190;-89
2022/05/16 01:34:56;;;;;;;;;;;26.50;38.80;;;;;;660068;30;1164;-91
2022/05/16 01:35:18;;;;;;;;;;;26.50;40.40;;;;;;660603;29;1249;-89
2022/05/16 01:35:39;;;;;;;;;;;26.50;38.80;;;;;;663333;29;801;-87
2022/05/16 01:36:09;;;;;;;;;;;26.50;38.80;;;;;;662779;29;1170;-90
2022/05/16 01:36:33;;;;;;;;;;;26.60;39.60;;;;;;664985;29;967;-91
2022/05/16 01:36:56;;;;;;;;;;;26.40;41.30;;;;;;663089;29;946;-90
2022/05/16 01:37:17;;;;;;;;;;;26.50;39.40;;;;;;667586;29;1054;-93
2022/05/16 01:38:26;;;;;;;;;;;26.50;38.80;;;;;;667855;29;678;-93
2022/05/16 01:38:46;;;;;;;;;;;26.50;38.80;;;;;;665154;29;1293;-90
2022/05/16 01:39:07;;;;;;;;;;;26.50;39.40;;;;;;662674;29;1332;-91
2022/05/16 01:39:27;;;;;;;;;;;26.50;39.10;;;;;;663666;29;1314;-87
2022/05/16 01:39:48;;;;;;;;;;;26.40;39.50;;;;;;665097;29;1406;-89
2022/05/16 01:40:09;;;;;;;;;;;26.50;39.60;;;;;;665052;29;1098;-88
2022/05/16 01:40:29;;;;;;;;;;;26.50;38.70;;;;;;665386;29;1213;-93
2022/05/16 01:40:56;;;;;;;;;;;26.50;39.90;;;;;;667757;29;817;-91
2022/05/16 01:41:17;;;;;;;;;;;26.50;38.60;;;;;;665143;29;1221;-90
2022/05/16 01:41:38;;;;;;;;;;;26.50;39.30;;;;;;665134;29;1273;-91
2022/05/16 01:41:58;;;;;;;;;;;26.50;39.40;;;;;;662720;29;1312;-91
2022/05/16 01:42:19;;;;;;;;;;;26.50;39.00;;;;;;663906;29;1182;-91
2022/05/16 01:42:39;;;;;;;;;;;26.40;39.00;;;;;;664935;29;1205;-89
2022/05/16 01:43:00;;;;;;;;;;;26.40;39.50;;;;;;662983;29;1340;-90
2022/05/16 01:43:22;;;;;;;;;;;26.50;39.00;;;;;;665243;29;1145;-89
2022/05/16 01:43:44;;;;;;;;;;;26.50;38.90;;;;;;662774;29;1364;-89
2022/05/16 01:44:05;;;;;;;;;;;26.40;39.00;;;;;;660059;30;1483;-90
2022/05/16 01:44:25;;;;;;;;;;;26.40;39.30;;;;;;660799;29;1087;-86
2022/05/16 01:44:46;;;;;;;;;;;26.50;39.80;;;;;;662801;29;1322;-91
2022/05/16 01:45:08;;;;;;;;;;;26.40;39.30;;;;;;660176;29;1474;-95
2022/05/16 01:45:28;;;;;;;;;;;26.40;38.90;;;;;;660824;29;1378;-91
2022/05/16 01:45:50;;;;;;;;;;;26.40;38.90;;;;;;662239;29;1229;-91
2022/05/16 01:46:11;;;;;;;;;;;26.40;38.70;;;;;;658074;30;1242;-91
2022/05/16 01:46:34;;;;;;;;;;;26.40;39.40;;;;;;660665;29;1412;-88
2022/05/16 01:46:54;;;;;;;;;;;26.40;39.00;;;;;;662566;29;1385;-89
2022/05/16 01:47:15;;;;;;;;;;;26.40;39.60;;;;;;660811;29;1385;-87
2022/05/16 01:47:35;;;;;;;;;;;26.40;39.40;;;;;;662710;29;738;-88
2022/05/16 01:47:56;;;;;;;;;;;26.40;39.80;;;;;;660025;30;1178;-92
2022/05/16 01:48:17;;;;;;;;;;;26.40;40.70;;;;;;658181;30;1297;-91
2022/05/16 01:48:38;;;;;;;;;;;26.40;38.80;;;;;;660403;29;1131;-91
2022/05/16 01:48:58;;;;;;;;;;;26.40;39.50;;;;;;662825;29;1130;-88
2022/05/16 01:49:19;;;;;;;;;;;26.40;39.10;;;;;;662564;29;1194;-91
2022/05/16 01:49:39;;;;;;;;;;;26.40;38.80;;;;;;662699;29;871;-87
2022/05/16 01:50:00;;;;;;;;;;;26.40;38.90;;;;;;660244;29;1424;-90
2022/05/16 01:50:20;;;;;;;;;;;26.40;39.40;;;;;;662470;29;1963;-89
2022/05/16 01:50:42;;;;;;;;;;;26.40;39.60;;;;;;659940;30;1159;-87
2022/05/16 01:51:04;;;;;;;;;;;26.40;39.00;;;;;;660191;29;1401;-87
2022/05/16 01:51:25;;;;;;;;;;;26.40;38.60;;;;;;662704;29;798;-87
2022/05/16 01:51:45;;;;;;;;;;;26.40;39.60;;;;;;660702;29;1252;-88
2022/05/16 01:52:06;;;;;;;;;;;26.40;39.90;;;;;;662603;29;976;-86
2022/05/16 01:52:26;;;;;;;;;;;26.30;40.60;;;;;;660545;29;1202;-90
2022/05/16 01:52:47;;;;;;;;;;;26.30;40.50;;;;;;660396;29;1404;-87
2022/05/16 01:53:07;;;;;;;;;;;26.40;39.80;;;;;;662524;29;1525;-91
2022/05/16 01:53:28;;;;;;;;;;;26.40;38.90;;;;;;662530;29;1425;-89
2022/05/16 01:53:49;;;;;;;;;;;26.40;39.00;;;;;;662518;29;1375;-91
2022/05/16 01:54:10;;;;;;;;;;;26.40;39.30;;;;;;662603;29;1134;-90
2022/05/16 01:54:30;;;;;;;;;;;26.30;39.40;;;;;;662867;29;1371;-86
2022/05/16 01:54:51;;;;;;;;;;;26.40;40.70;;;;;;662373;29;1319;-87
2022/05/16 01:55:11;;;;;;;;;;;26.40;40.50;;;;;;662480;29;805;-86
2022/05/16 01:55:32;;;;;;;;;;;26.40;39.40;;;;;;662892;29;877;-87
2022/05/16 01:55:52;;;;;;;;;;;26.40;38.90;;;;;;665357;29;991;-86
2022/05/16 01:56:13;;;;;;;;;;;26.40;38.90;;;;;;665081;29;1117;-91
2022/05/16 01:56:35;;;;;;;;;;;26.40;38.70;;;;;;665007;29;1279;-91
2022/05/16 01:56:56;;;;;;;;;;;26.30;38.70;;;;;;665039;29;782;-89
2022/05/16 01:57:17;;;;;;;;;;;26.40;38.80;;;;;;662599;29;1318;-89
2022/05/16 01:57:40;;;;;;;;;;;26.40;38.80;;;;;;659992;30;1163;-90
2022/05/16 01:58:01;;;;;;;;;;;26.40;38.70;;;;;;660836;29;489;-86
2022/05/16 01:58:22;;;;;;;;;;;26.40;38.90;;;;;;661060;29;1171;-86
2022/05/16 01:58:44;;;;;;;;;;;26.40;38.60;;;;;;665072;29;1206;-85
2022/05/16 01:59:05;;;;;;;;;;;26.40;39.30;;;;;;665901;29;1245;-85
2022/05/16 01:59:25;;;;;;;;;;;26.40;38.90;;;;;;667488;29;1121;-86
2022/05/16 01:59:46;;;;;;;;;;;26.40;39.00;;;;;;665159;29;1406;-87
2022/05/16 02:00:09;;;;;;;;;;;26.40;40.00;;;;;;662523;29;1245;-87
2022/05/16 02:00:31;;;;;;;;;;;26.40;38.60;;;;;;662609;29;828;-86
2022/05/16 02:00:52;;;;;;;;;;;26.30;38.60;;;;;;660055;30;1203;-89
2022/05/16 02:01:14;;;;;;;;;;;26.30;38.70;;;;;;660994;29;774;-86
2022/05/16 02:01:35;;;;;;;;;;;26.30;38.80;;;;;;663472;29;1203;-86
2022/05/16 02:01:55;;;;;;;;;;;26.30;40.00;;;;;;664964;29;1284;-86
2022/05/16 02:02:16;;;;;;;;;;;26.30;38.60;;;;;;662469;29;1114;-86
2022/05/16 02:02:37;;;;;;;;;;;26.30;38.60;;;;;;662471;29;1240;-86
2022/05/16 02:02:58;;;;;;;;;;;26.30;39.20;;;;;;662621;29;986;-89
2022/05/16 02:03:19;;;;;;;;;;;26.40;38.90;;;;;;662560;29;1287;-88
2022/05/16 02:03:41;;;;;;;;;;;26.30;38.60;;;;;;662521;29;1313;-86
2022/05/16 02:04:02;;;;;;;;;;;26.30;38.60;;;;;;662559;29;790;-88
2022/05/16 02:04:22;;;;;;;;;;;26.30;38.50;;;;;;660603;29;1581;-88
2022/05/16 02:04:43;;;;;;;;;;;26.30;38.80;;;;;;662479;29;1348;-88
2022/05/16 02:05:03;;;;;;;;;;;26.30;39.40;;;;;;663029;29;1233;-88
2022/05/16 02:05:24;;;;;;;;;;;26.30;39.00;;;;;;664929;29;1082;-88
2022/05/16 02:05:44;;;;;;;;;;;26.30;38.90;;;;;;665188;29;770;-90
2022/05/16 02:06:05;;;;;;;;;;;26.30;38.90;;;;;;665054;29;1225;-86
2022/05/16 02:06:26;;;;;;;;;;;26.30;38.70;;;;;;662553;29;1318;-86
2022/05/16 02:06:46;;;;;;;;;;;26.30;38.60;;;;;;660383;29;1170;-89
2022/05/16 02:07:07;;;;;;;;;;;26.30;39.40;;;;;;660030;29;1335;-85
2022/05/16 02:07:27;;;;;;;;;;;26.30;39.70;;;;;;659875;29;1067;-85
2022/05/16 02:07:50;;;;;;;;;;;26.30;39.30;;;;;;660331;29;1217;-85
2022/05/16 02:08:11;;;;;;;;;;;26.30;38.60;;;;;;658015;30;1331;-87
2022/05/16 02:08:31;;;;;;;;;;;26.30;38.50;;;;;;658121;30;1206;-88
2022/05/16 02:08:52;;;;;;;;;;;23.90;37.50;;;;;;658070;30;1473;-89
2022/05/16 02:09:13;;;;;;;;;;;26.30;40.20;;;;;;657667;30;1205;-89
2022/05/16 02:09:34;;;;;;;;;;;26.30;38.90;;;;;;657567;30;1212;-86
2022/05/16 02:09:54;;;;;;;;;;;26.30;39.20;;;;;;657949;29;1092;-85
2022/05/16 02:10:15;;;;;;;;;;;26.30;39.10;;;;;;660556;29;825;-86
2022/05/16 02:10:36;;;;;;;;;;;26.30;38.60;;;;;;662969;29;1960;-90
2022/05/16 02:10:57;;;;;;;;;;;26.30;39.50;;;;;;660827;29;1235;-86
2022/05/16 02:11:17;;;;;;;;;;;26.30;38.80;;;;;;663288;29;1177;-86
2022/05/16 02:11:38;;;;;;;;;;;26.30;39.90;;;;;;665382;29;1135;-86
2022/05/16 02:11:59;;;;;;;;;;;26.30;39.10;;;;;;662996;29;1298;-85
2022/05/16 02:12:19;;;;;;;;;;;26.30;39.50;;;;;;663043;29;1316;-86
2022/05/16 02:12:40;;;;;;;;;;;26.30;38.70;;;;;;663345;29;1360;-85
2022/05/16 02:13:03;;;;;;;;;;;26.30;40.30;;;;;;662784;29;1402;-86
2022/05/16 02:13:24;;;;;;;;;;;26.30;39.40;;;;;;661183;29;872;-88
2022/05/16 02:13:46;;;;;;;;;;;25.90;39.30;;;;;;663798;29;892;-88
2022/05/16 02:14:07;;;;;;;;;;;26.30;39.30;;;;;;663090;29;1153;-90
2022/05/16 02:14:27;;;;;;;;;;;26.30;39.40;;;;;;663897;29;786;-86